Skip Navigation

Christman Field Latest Observations

Switch to english unitsOther observation timesWeekly graphs

Date Time
MST
Temp
°C
RH
%
DewPt
°C
Wind
m/s
Dir
°
Gust
m/s
Dir
°
Press
hPa
Solar
W/m^2
Prec
mm
2020-02-19 01:30 -7.3 61.1 -13.5 1.4 323 1.8 325 846.11 0.0 0.00
2020-02-19 01:25 -7.4 61.6 -13.5 1.5 326 1.9 325 846.11 0.0 0.00
2020-02-19 01:20 -7.8 62.9 -13.6 1.3 321 1.6 314 846.07 0.0 0.00
2020-02-19 01:15 -8.1 65.5 -13.4 1.6 315 1.8 314 846.00 0.0 0.00
2020-02-19 01:10 -7.8 64.8 -13.2 1.6 312 2.2 308 846.00 0.0 0.00
2020-02-19 01:05 -7.7 64.2 -13.3 1.3 315 1.6 316 846.04 0.0 0.00
2020-02-19 01:00 -7.7 65.8 -13.0 1.1 331 1.5 333 846.09 0.0 0.00
2020-02-19 00:55 -7.9 66.7 -13.0 1.0 314 1.5 319 846.09 0.0 0.00
2020-02-19 00:50 -7.6 65.5 -13.0 1.8 322 2.5 332 846.17 0.0 0.00
2020-02-19 00:45 -7.3 63.8 -13.0 2.3 331 2.5 331 846.10 0.0 0.00
2020-02-19 00:40 -7.0 62.4 -13.0 2.4 331 2.5 329 846.17 0.0 0.00
2020-02-19 00:35 -7.0 61.7 -13.2 2.3 332 2.5 339 846.21 0.0 0.00
2020-02-19 00:30 -7.2 62.8 -13.1 1.8 335 2.0 327 846.26 0.0 0.00
2020-02-19 00:25 -7.3 64.2 -12.9 1.8 318 2.2 326 846.29 0.0 0.00
2020-02-19 00:20 -7.5 65.2 -12.9 2.5 326 2.9 337 846.31 0.0 0.00
2020-02-19 00:15 -7.4 62.9 -13.2 2.9 337 3.2 336 846.34 0.0 0.00
2020-02-19 00:10 -7.2 63.1 -13.0 3.0 339 3.4 345 846.37 0.0 0.00
2020-02-19 00:05 -7.1 63.2 -12.9 2.3 346 3.3 346 846.40 0.0 0.00
2020-02-19 00:00 -6.3 58.4 -13.2 2.2 347 2.5 333 846.44 0.0 0.00
2020-02-18 23:55 -6.5 59.0 -13.2 2.7 331 2.9 319 846.37 0.0 0.00
2020-02-18 23:50 -6.7 60.2 -13.1 2.9 318 3.2 324 846.34 0.0 0.00
2020-02-18 23:45 -7.0 61.9 -13.1 2.9 324 3.2 326 846.34 0.0 0.00
2020-02-18 23:40 -6.6 61.8 -12.8 3.1 327 3.5 331 846.32 0.0 0.00
2020-02-18 23:35 -6.7 60.4 -13.0 2.9 334 3.1 331 846.31 0.0 0.00
2020-02-18 23:30 -6.6 61.2 -12.8 2.6 319 2.9 321 846.31 0.0 0.00
2020-02-18 23:25 -6.6 60.3 -13.0 2.8 324 3.3 328 846.24 0.0 0.00
2020-02-18 23:20 -6.5 62.2 -12.6 2.1 325 2.4 321 846.30 0.0 0.00
2020-02-18 23:15 -5.8 58.9 -12.5 2.4 318 2.7 324 846.35 0.0 0.00
2020-02-18 23:10 -5.9 56.9 -13.1 2.5 315 2.8 320 846.28 0.0 0.00
2020-02-18 23:05 -6.2 58.6 -13.0 2.4 319 2.8 319 846.25 0.0 0.00